Time,TemperatureF,DewpointF,PressureIn,WindDirection,WindDirectionDegrees,WindSpeedMPH,WindSpeedGustMPH,Humidity,HourlyPrecipIn,Conditions,Clouds,dailyrainin,SoftwareType,DateUTC
2013-06-01 00:03:00,77.8,75.0,30.03,SSE,159,0.0,4.0,90,0.03,,,0.00,weatherlink.com 1.10,2013-06-01 04:03:00,
2013-06-01 00:18:00,77.6,75.0,30.03,East,99,5.0,10.0,91,0.02,,,0.00,weatherlink.com 1.10,2013-06-01 04:18:00,
2013-06-01 00:33:00,77.5,75.0,30.02,ESE,114,6.0,9.0,91,0.02,,,0.00,weatherlink.com 1.10,2013-06-01 04:33:00,
2013-06-01 00:48:00,77.3,75.0,30.02,East,87,6.0,9.0,91,0.02,,,0.00,weatherlink.com 1.10,2013-06-01 04:48:00,
2013-06-01 01:04:00,77.3,75.0,30.02,East,95,7.0,11.0,91,0.01,,,0.01,weatherlink.com 1.10,2013-06-01 05:04:00,
2013-06-01 01:21:00,77.1,74.0,30.01,East,92,4.0,8.0,91,0.01,,,0.01,weatherlink.com 1.10,2013-06-01 05:21:00,
2013-06-01 01:34:00,77.3,75.0,30.01,East,92,0.0,7.0,91,0.01,,,0.01,weatherlink.com 1.10,2013-06-01 05:34:00,
2013-06-01 01:49:00,77.3,75.0,30.00,SSE,156,2.0,12.0,91,0.01,,,0.01,weatherlink.com 1.10,2013-06-01 05:49:00,
2013-06-01 02:04:00,77.6,75.0,30.00,ESE,121,2.0,10.0,90,0.00,,,0.01,weatherlink.com 1.10,2013-06-01 06:04:00,
2013-06-01 02:19:00,77.8,74.0,29.99,SE,134,6.0,10.0,89,0.00,,,0.01,weatherlink.com 1.10,2013-06-01 06:19:00,
2013-06-01 02:34:00,78.0,75.0,29.99,SE,127,1.0,9.0,89,0.00,,,0.01,weatherlink.com 1.10,2013-06-01 06:34:00,
2013-06-01 02:49:00,78.2,75.0,29.98,SE,134,6.0,12.0,89,0.00,,,0.01,weatherlink.com 1.10,2013-06-01 06:49:00,
2013-06-01 03:04:00,78.0,74.0,29.98,SE,136,3.0,11.0,88,0.00,,,0.01,weatherlink.com 1.10,2013-06-01 07:04:00,
2013-06-01 03:19:00,78.2,74.0,29.98,SE,129,4.0,8.0,87,0.00,,,0.01,weatherlink.com 1.10,2013-06-01 07:19:00,
2013-06-01 03:34:00,78.2,74.0,29.98,SE,127,5.0,11.0,87,0.00,,,0.01,weatherlink.com 1.10,2013-06-01 07:34:00,
2013-06-01 03:49:00,78.0,74.0,29.98,SE,141,1.0,8.0,88,0.00,,,0.01,weatherlink.com 1.10,2013-06-01 07:49:00,
2013-06-01 04:04:00,77.1,73.0,29.98,SSE,156,0.0,6.0,88,0.00,,,0.01,weatherlink.com 1.10,2013-06-01 08:04:00,
2013-06-01 04:19:00,76.9,74.0,29.97,SSE,156,0.0,3.0,89,0.00,,,0.01,weatherlink.com 1.10,2013-06-01 08:19:00,
2013-06-01 04:34:00,76.6,73.0,29.96,SSE,156,0.0,0.0,89,0.00,,,0.01,weatherlink.com 1.10,2013-06-01 08:34:00,
2013-06-01 04:49:00,76.4,73.0,29.96,SSE,156,0.0,4.0,90,0.00,,,0.01,weatherlink.com 1.10,2013-06-01 08:49:00,
2013-06-01 05:05:00,76.2,73.0,29.95,SSE,156,0.0,1.0,90,0.00,,,0.01,weatherlink.com 1.10,2013-06-01 09:05:00,
2013-06-01 05:19:00,76.0,73.0,29.96,SSE,156,0.0,0.0,91,0.00,,,0.01,weatherlink.com 1.10,2013-06-01 09:19:00,
2013-06-01 05:34:00,76.0,73.0,29.96,SSE,156,0.0,4.0,91,0.00,,,0.01,weatherlink.com 1.10,2013-06-01 09:34:00,
2013-06-01 05:49:00,76.0,73.0,29.97,SSE,156,0.0,0.0,91,0.00,,,0.01,weatherlink.com 1.10,2013-06-01 09:49:00,
2013-06-01 06:04:00,76.0,73.0,29.97,SSE,156,0.0,0.0,91,0.00,,,0.01,weatherlink.com 1.10,2013-06-01 10:04:00,
2013-06-01 06:19:00,76.0,73.0,29.98,SSE,156,0.0,0.0,91,0.00,,,0.01,weatherlink.com 1.10,2013-06-01 10:19:00,
2013-06-01 06:34:00,76.0,73.0,29.98,SSE,156,0.0,0.0,91,0.00,,,0.01,weatherlink.com 1.10,2013-06-01 10:34:00,
2013-06-01 06:49:00,76.2,74.0,29.98,SSE,156,0.0,0.0,92,0.00,,,0.01,weatherlink.com 1.10,2013-06-01 10:49:00,
2013-06-01 07:04:00,76.2,74.0,29.99,SE,137,0.0,1.0,92,0.00,,,0.01,weatherlink.com 1.10,2013-06-01 11:04:00,
2013-06-01 07:19:00,76.4,74.0,29.99,SE,137,0.0,0.0,92,0.00,,,0.01,weatherlink.com 1.10,2013-06-01 11:19:00,
2013-06-01 07:34:00,76.7,74.0,30.00,SE,127,0.0,5.0,92,0.00,,,0.01,weatherlink.com 1.10,2013-06-01 11:34:00,
2013-06-01 07:49:00,77.1,75.0,30.00,SE,135,0.0,0.0,92,0.00,,,0.01,weatherlink.com 1.10,2013-06-01 11:49:00,
2013-06-01 08:04:00,77.5,75.0,30.00,ENE,66,0.0,0.0,92,0.00,,,0.01,weatherlink.com 1.10,2013-06-01 12:04:00,
2013-06-01 08:19:00,77.6,75.0,30.00,ENE,68,2.0,4.0,92,0.00,,,0.01,weatherlink.com 1.10,2013-06-01 12:19:00,
2013-06-01 08:34:00,78.7,76.0,30.00,NE,55,1.0,6.0,91,0.00,,,0.01,weatherlink.com 1.10,2013-06-01 12:34:00,
2013-06-01 08:50:00,79.3,75.0,30.00,ENE,61,0.0,2.0,87,0.00,,,0.01,weatherlink.com 1.10,2013-06-01 12:50:00,
2013-06-01 09:04:00,80.4,75.0,30.01,East,90,3.0,6.0,82,0.00,,,0.01,weatherlink.com 1.10,2013-06-01 13:04:00,
2013-06-01 09:19:00,80.2,74.0,30.02,East,87,0.0,7.0,81,0.00,,,0.01,weatherlink.com 1.10,2013-06-01 13:19:00,
2013-06-01 09:34:00,80.4,75.0,30.02,ESE,108,0.0,8.0,83,0.00,,,0.01,weatherlink.com 1.10,2013-06-01 13:34:00,
2013-06-01 09:49:00,80.6,75.0,30.02,East,100,4.0,6.0,84,0.00,,,0.01,weatherlink.com 1.10,2013-06-01 13:49:00,
2013-06-01 10:04:00,80.4,75.0,30.02,East,87,6.0,14.0,83,0.00,,,0.01,weatherlink.com 1.10,2013-06-01 14:04:00,
2013-06-01 10:19:00,81.1,75.0,30.02,SE,129,4.0,11.0,81,0.00,,,0.01,weatherlink.com 1.10,2013-06-01 14:19:00,
2013-06-01 10:34:00,81.0,74.0,30.02,ESE,119,3.0,8.0,80,0.00,,,0.01,weatherlink.com 1.10,2013-06-01 14:34:00,
2013-06-01 10:49:00,80.6,74.0,30.02,SSE,147,1.0,5.0,80,0.00,,,0.01,weatherlink.com 1.10,2013-06-01 14:49:00,
2013-06-01 11:04:00,81.1,74.0,30.02,SE,133,2.0,10.0,79,0.00,,,0.01,weatherlink.com 1.10,2013-06-01 15:04:00,
2013-06-01 11:19:00,81.3,75.0,30.02,SE,136,1.0,10.0,80,0.00,,,0.01,weatherlink.com 1.10,2013-06-01 15:19:00,
2013-06-01 11:34:00,81.5,74.0,30.02,SE,125,0.0,12.0,79,0.00,,,0.01,weatherlink.com 1.10,2013-06-01 15:34:00,
2013-06-01 11:49:00,81.9,75.0,30.02,SE,124,3.0,9.0,79,0.00,,,0.01,weatherlink.com 1.10,2013-06-01 15:49:00,
2013-06-01 12:04:00,81.9,75.0,30.02,SSE,160,5.0,12.0,79,0.00,,,0.01,weatherlink.com 1.10,2013-06-01 16:04:00,
2013-06-01 12:19:00,83.1,75.0,30.02,SE,129,5.0,16.0,77,0.00,,,0.01,weatherlink.com 1.10,2013-06-01 16:19:00,
2013-06-01 12:34:00,82.7,74.0,30.02,ESE,112,8.0,15.0,76,0.00,,,0.01,weatherlink.com 1.10,2013-06-01 16:34:00,
2013-06-01 12:49:00,82.9,75.0,30.01,East,80,6.0,16.0,76,0.00,,,0.01,weatherlink.com 1.10,2013-06-01 16:49:00,
2013-06-01 13:04:00,83.1,74.0,30.01,SE,143,6.0,18.0,75,0.00,,,0.01,weatherlink.com 1.10,2013-06-01 17:04:00,
2013-06-01 13:19:00,82.7,75.0,30.00,ESE,121,12.0,13.0,78,0.00,,,0.01,weatherlink.com 1.10,2013-06-01 17:19:00,
2013-06-01 13:34:00,83.3,75.0,30.00,ESE,119,5.0,16.0,76,0.00,,,0.01,weatherlink.com 1.10,2013-06-01 17:34:00,
2013-06-01 13:49:00,83.7,75.0,30.00,East,96,11.0,19.0,74,0.00,,,0.01,weatherlink.com 1.10,2013-06-01 17:49:00,
2013-06-01 14:04:00,83.5,75.0,29.99,SSE,154,4.0,16.0,76,0.00,,,0.01,weatherlink.com 1.10,2013-06-01 18:04:00,
2013-06-01 14:19:00,82.3,74.0,29.99,SSE,151,2.0,22.0,75,0.00,,,0.01,weatherlink.com 1.10,2013-06-01 18:19:00,
2013-06-01 14:34:00,82.1,74.0,29.99,SSE,162,3.0,14.0,76,0.00,,,0.01,weatherlink.com 1.10,2013-06-01 18:34:00,
2013-06-01 14:49:00,81.1,74.0,29.99,SSE,149,3.0,12.0,78,0.00,,,0.01,weatherlink.com 1.10,2013-06-01 18:49:00,
2013-06-01 15:04:00,81.0,73.0,29.98,SE,131,4.0,12.0,77,0.00,,,0.01,weatherlink.com 1.10,2013-06-01 19:04:00,
2013-06-01 15:19:00,80.8,74.0,29.99,SE,139,3.0,13.0,79,0.00,,,0.01,weatherlink.com 1.10,2013-06-01 19:19:00,
2013-06-01 15:34:00,80.2,74.0,29.99,ESE,105,2.0,10.0,80,0.00,,,0.01,weatherlink.com 1.10,2013-06-01 19:34:00,
2013-06-01 15:49:00,80.2,74.0,29.97,SE,128,0.0,10.0,82,0.00,,,0.01,weatherlink.com 1.10,2013-06-01 19:49:00,
2013-06-01 16:04:00,80.0,74.0,29.98,East,100,2.0,9.0,83,0.00,,,0.01,weatherlink.com 1.10,2013-06-01 20:04:00,
2013-06-01 16:19:00,79.7,75.0,29.98,ESE,118,3.0,10.0,84,0.00,,,0.01,weatherlink.com 1.10,2013-06-01 20:19:00,
2013-06-01 16:34:00,79.3,74.0,29.97,East,90,0.0,13.0,84,0.00,,,0.01,weatherlink.com 1.10,2013-06-01 20:34:00,
2013-06-01 16:49:00,79.5,74.0,29.98,ESE,117,0.0,7.0,82,0.00,,,0.01,weatherlink.com 1.10,2013-06-01 20:49:00,
2013-06-01 17:04:00,79.7,74.0,29.98,East,98,4.0,11.0,82,0.00,,,0.01,weatherlink.com 1.10,2013-06-01 21:04:00,
2013-06-01 17:19:00,79.1,74.0,29.97,SE,146,4.0,7.0,84,0.00,,,0.01,weatherlink.com 1.10,2013-06-01 21:19:00,
2013-06-01 17:34:00,78.7,74.0,29.98,SE,130,5.0,10.0,86,0.00,,,0.01,weatherlink.com 1.10,2013-06-01 21:34:00,
2013-06-01 17:49:00,78.0,74.0,29.98,SSE,160,0.0,9.0,88,0.02,,,0.03,weatherlink.com 1.10,2013-06-01 21:49:00,
2013-06-01 18:04:00,77.6,74.0,29.98,SSE,166,0.0,8.0,89,0.04,,,0.05,weatherlink.com 1.10,2013-06-01 22:04:00,
2013-06-01 18:19:00,77.6,75.0,29.99,SSW,199,3.0,7.0,90,0.07,,,0.08,weatherlink.com 1.10,2013-06-01 22:19:00,
2013-06-01 18:35:00,76.0,73.0,30.00,SSW,204,0.0,7.0,90,0.08,,,0.09,weatherlink.com 1.10,2013-06-01 22:35:00,
2013-06-01 18:49:00,76.0,73.0,30.00,SSW,204,0.0,0.0,91,0.08,,,0.11,weatherlink.com 1.10,2013-06-01 22:49:00,
2013-06-01 19:05:00,75.7,73.0,29.99,SSE,162,0.0,1.0,91,0.08,,,0.13,weatherlink.com 1.10,2013-06-01 23:05:00,
2013-06-01 19:19:00,76.2,74.0,30.00,SSE,162,0.0,0.0,91,0.06,,,0.14,weatherlink.com 1.10,2013-06-01 23:19:00,
2013-06-01 19:35:00,76.4,74.0,29.99,SSE,163,0.0,4.0,92,0.05,,,0.15,weatherlink.com 1.10,2013-06-01 23:35:00,
2013-06-01 19:50:00,76.4,74.0,29.99,SSE,163,0.0,0.0,92,0.04,,,0.15,weatherlink.com 1.10,2013-06-01 23:50:00,
2013-06-01 20:05:00,76.4,74.0,29.99,SSE,163,0.0,0.0,92,0.02,,,0.15,weatherlink.com 1.10,2013-06-02 00:05:00,
2013-06-01 20:20:00,76.4,74.0,30.01,SSE,163,0.0,0.0,93,0.01,,,0.15,weatherlink.com 1.10,2013-06-02 00:20:00,
2013-06-01 20:35:00,76.4,74.0,30.01,SSE,163,0.0,0.0,93,0.00,,,0.15,weatherlink.com 1.10,2013-06-02 00:35:00,
2013-06-01 20:50:00,76.6,75.0,30.00,South,173,3.0,4.0,93,0.00,,,0.15,weatherlink.com 1.10,2013-06-02 00:50:00,
2013-06-01 21:05:00,76.0,74.0,30.00,SW,223,0.0,6.0,93,0.00,,,0.15,weatherlink.com 1.10,2013-06-02 01:05:00,
2013-06-01 21:20:00,75.7,74.0,30.00,SW,223,0.0,0.0,93,0.00,,,0.15,weatherlink.com 1.10,2013-06-02 01:20:00,
2013-06-01 21:35:00,75.5,73.0,30.01,SW,223,0.0,0.0,93,0.00,,,0.15,weatherlink.com 1.10,2013-06-02 01:35:00,
2013-06-01 21:50:00,75.2,73.0,30.01,SW,223,0.0,0.0,93,0.00,,,0.15,weatherlink.com 1.10,2013-06-02 01:50:00,
2013-06-01 22:05:00,75.3,74.0,30.00,SW,223,0.0,0.0,94,0.00,,,0.15,weatherlink.com 1.10,2013-06-02 02:05:00,
2013-06-01 22:20:00,75.5,74.0,30.00,SW,223,0.0,0.0,94,0.00,,,0.15,weatherlink.com 1.10,2013-06-02 02:20:00,
2013-06-01 22:35:00,75.5,74.0,30.01,SW,223,0.0,0.0,94,0.00,,,0.15,weatherlink.com 1.10,2013-06-02 02:35:00,
2013-06-01 22:50:00,75.3,74.0,30.01,SW,223,0.0,0.0,94,0.00,,,0.15,weatherlink.com 1.10,2013-06-02 02:50:00,
2013-06-01 23:05:00,75.3,74.0,30.02,NW,308,0.0,5.0,94,0.00,,,0.15,weatherlink.com 1.10,2013-06-02 03:05:00,
2013-06-01 23:20:00,75.3,74.0,30.01,NW,308,0.0,0.0,94,0.00,,,0.15,weatherlink.com 1.10,2013-06-02 03:20:00,
2013-06-01 23:36:00,75.3,74.0,30.01,NW,308,0.0,0.0,94,0.00,,,0.15,weatherlink.com 1.10,2013-06-02 03:36:00,
2013-06-01 23:50:00,75.5,74.0,30.00,NW,308,0.0,0.0,94,0.00,,,0.15,weatherlink.com 1.10,2013-06-02 03:50:00,